sensor_id;sensor_type;location;lat;lon;timestamp;P1;durP1;ratioP1;P2;durP2;ratioP2
7669;SDS011;3877;42.562;27.636;2023-07-29T00:00:58;4.25;;;2.75;;
7669;SDS011;3877;42.562;27.636;2023-07-29T00:03:26;2.85;;;2.55;;
7669;SDS011;3877;42.562;27.636;2023-07-29T00:05:55;4.18;;;2.42;;
7669;SDS011;3877;42.562;27.636;2023-07-29T00:08:22;2.92;;;2.40;;
7669;SDS011;3877;42.562;27.636;2023-07-29T00:10:49;3.30;;;2.80;;
7669;SDS011;3877;42.562;27.636;2023-07-29T00:13:18;4.03;;;2.95;;
7669;SDS011;3877;42.562;27.636;2023-07-29T00:15:45;4.32;;;2.78;;
7669;SDS011;3877;42.562;27.636;2023-07-29T00:18:13;3.00;;;2.63;;
7669;SDS011;3877;42.562;27.636;2023-07-29T00:20:40;3.90;;;2.47;;
7669;SDS011;3877;42.562;27.636;2023-07-29T00:23:08;7.95;;;2.95;;
7669;SDS011;3877;42.562;27.636;2023-07-29T00:25:35;5.32;;;3.05;;
7669;SDS011;3877;42.562;27.636;2023-07-29T00:28:02;7.00;;;2.70;;
7669;SDS011;3877;42.562;27.636;2023-07-29T00:30:31;3.80;;;2.80;;
7669;SDS011;3877;42.562;27.636;2023-07-29T00:32:58;2.97;;;2.70;;
7669;SDS011;3877;42.562;27.636;2023-07-29T00:35:25;3.72;;;2.80;;
7669;SDS011;3877;42.562;27.636;2023-07-29T00:37:52;6.60;;;2.92;;
7669;SDS011;3877;42.562;27.636;2023-07-29T00:40:20;5.05;;;2.90;;
7669;SDS011;3877;42.562;27.636;2023-07-29T00:42:49;3.63;;;2.63;;
7669;SDS011;3877;42.562;27.636;2023-07-29T00:45:17;3.55;;;2.40;;
7669;SDS011;3877;42.562;27.636;2023-07-29T00:47:46;6.70;;;2.70;;
7669;SDS011;3877;42.562;27.636;2023-07-29T00:50:15;4.15;;;2.50;;
7669;SDS011;3877;42.562;27.636;2023-07-29T00:52:44;3.67;;;2.80;;
7669;SDS011;3877;42.562;27.636;2023-07-29T00:55:11;4.85;;;2.38;;
7669;SDS011;3877;42.562;27.636;2023-07-29T00:57:39;5.13;;;2.80;;
7669;SDS011;3877;42.562;27.636;2023-07-29T01:00:07;4.03;;;2.65;;
7669;SDS011;3877;42.562;27.636;2023-07-29T01:02:36;9.88;;;3.28;;
7669;SDS011;3877;42.562;27.636;2023-07-29T01:05:05;4.15;;;2.95;;
7669;SDS011;3877;42.562;27.636;2023-07-29T01:07:35;5.30;;;3.30;;
7669;SDS011;3877;42.562;27.636;2023-07-29T01:10:13;5.75;;;3.08;;
7669;SDS011;3877;42.562;27.636;2023-07-29T01:12:51;8.43;;;3.30;;
7669;SDS011;3877;42.562;27.636;2023-07-29T01:15:26;8.63;;;3.10;;
7669;SDS011;3877;42.562;27.636;2023-07-29T01:18:02;6.20;;;3.10;;
7669;SDS011;3877;42.562;27.636;2023-07-29T01:20:34;17.10;;;3.95;;
7669;SDS011;3877;42.562;27.636;2023-07-29T01:23:06;16.65;;;4.03;;
7669;SDS011;3877;42.562;27.636;2023-07-29T01:25:34;6.43;;;3.25;;
7669;SDS011;3877;42.562;27.636;2023-07-29T01:28:02;12.48;;;3.20;;
7669;SDS011;3877;42.562;27.636;2023-07-29T01:30:30;17.17;;;3.78;;
7669;SDS011;3877;42.562;27.636;2023-07-29T01:33:04;10.73;;;3.65;;
7669;SDS011;3877;42.562;27.636;2023-07-29T01:35:40;11.70;;;3.20;;
7669;SDS011;3877;42.562;27.636;2023-07-29T01:38:13;11.13;;;4.13;;
7669;SDS011;3877;42.562;27.636;2023-07-29T01:40:47;9.98;;;3.45;;
7669;SDS011;3877;42.562;27.636;2023-07-29T01:43:17;6.47;;;3.20;;
7669;SDS011;3877;42.562;27.636;2023-07-29T01:45:48;8.38;;;3.58;;
7669;SDS011;3877;42.562;27.636;2023-07-29T01:48:16;8.00;;;3.28;;
7669;SDS011;3877;42.562;27.636;2023-07-29T01:50:44;7.03;;;3.28;;
7669;SDS011;3877;42.562;27.636;2023-07-29T01:53:11;8.43;;;3.10;;
7669;SDS011;3877;42.562;27.636;2023-07-29T01:55:38;7.00;;;3.10;;
7669;SDS011;3877;42.562;27.636;2023-07-29T01:58:07;8.32;;;3.50;;
7669;SDS011;3877;42.562;27.636;2023-07-29T02:00:34;3.72;;;2.88;;
7669;SDS011;3877;42.562;27.636;2023-07-29T02:03:01;10.52;;;3.38;;
7669;SDS011;3877;42.562;27.636;2023-07-29T02:05:29;6.50;;;3.53;;
7669;SDS011;3877;42.562;27.636;2023-07-29T02:07:56;4.15;;;3.30;;
7669;SDS011;3877;42.562;27.636;2023-07-29T02:10:23;11.70;;;3.67;;
7669;SDS011;3877;42.562;27.636;2023-07-29T02:12:50;7.28;;;3.70;;
7669;SDS011;3877;42.562;27.636;2023-07-29T02:15:19;6.97;;;3.60;;
7669;SDS011;3877;42.562;27.636;2023-07-29T02:17:46;6.75;;;3.70;;
7669;SDS011;3877;42.562;27.636;2023-07-29T02:20:14;4.55;;;3.65;;
7669;SDS011;3877;42.562;27.636;2023-07-29T02:22:41;5.40;;;3.40;;
7669;SDS011;3877;42.562;27.636;2023-07-29T02:25:08;4.55;;;3.15;;
7669;SDS011;3877;42.562;27.636;2023-07-29T02:27:36;5.22;;;3.13;;
7669;SDS011;3877;42.562;27.636;2023-07-29T02:30:03;5.03;;;3.10;;
7669;SDS011;3877;42.562;27.636;2023-07-29T02:32:32;5.20;;;3.30;;
7669;SDS011;3877;42.562;27.636;2023-07-29T02:35:00;4.03;;;3.05;;
7669;SDS011;3877;42.562;27.636;2023-07-29T02:37:27;10.05;;;3.25;;
7669;SDS011;3877;42.562;27.636;2023-07-29T02:39:54;3.63;;;2.90;;
7669;SDS011;3877;42.562;27.636;2023-07-29T02:42:21;6.30;;;3.20;;
7669;SDS011;3877;42.562;27.636;2023-07-29T02:44:49;6.05;;;3.58;;
7669;SDS011;3877;42.562;27.636;2023-07-29T02:47:16;6.22;;;3.20;;
7669;SDS011;3877;42.562;27.636;2023-07-29T02:49:44;6.93;;;3.60;;
7669;SDS011;3877;42.562;27.636;2023-07-29T02:52:12;5.07;;;3.22;;
7669;SDS011;3877;42.562;27.636;2023-07-29T02:54:39;4.82;;;3.35;;
7669;SDS011;3877;42.562;27.636;2023-07-29T02:57:06;5.65;;;3.30;;
7669;SDS011;3877;42.562;27.636;2023-07-29T02:59:33;4.63;;;3.22;;
7669;SDS011;3877;42.562;27.636;2023-07-29T03:02:01;5.75;;;3.13;;
7669;SDS011;3877;42.562;27.636;2023-07-29T03:04:28;3.90;;;3.33;;
7669;SDS011;3877;42.562;27.636;2023-07-29T03:06:57;6.32;;;3.30;;
7669;SDS011;3877;42.562;27.636;2023-07-29T03:09:24;4.82;;;3.40;;
7669;SDS011;3877;42.562;27.636;2023-07-29T03:11:52;7.50;;;3.47;;
7669;SDS011;3877;42.562;27.636;2023-07-29T03:14:20;5.18;;;3.17;;
7669;SDS011;3877;42.562;27.636;2023-07-29T03:16:47;5.43;;;3.20;;
7669;SDS011;3877;42.562;27.636;2023-07-29T03:19:15;7.88;;;3.30;;
7669;SDS011;3877;42.562;27.636;2023-07-29T03:21:42;6.80;;;3.38;;
7669;SDS011;3877;42.562;27.636;2023-07-29T03:24:10;9.77;;;3.53;;
7669;SDS011;3877;42.562;27.636;2023-07-29T03:26:38;4.72;;;3.20;;
7669;SDS011;3877;42.562;27.636;2023-07-29T03:29:05;4.88;;;2.80;;
7669;SDS011;3877;42.562;27.636;2023-07-29T03:31:32;4.13;;;3.17;;
7669;SDS011;3877;42.562;27.636;2023-07-29T03:33:59;4.50;;;3.33;;
7669;SDS011;3877;42.562;27.636;2023-07-29T03:36:27;5.88;;;3.30;;
7669;SDS011;3877;42.562;27.636;2023-07-29T03:38:54;4.53;;;3.10;;
7669;SDS011;3877;42.562;27.636;2023-07-29T03:41:23;4.95;;;3.25;;
7669;SDS011;3877;42.562;27.636;2023-07-29T03:43:50;4.82;;;3.13;;
7669;SDS011;3877;42.562;27.636;2023-07-29T03:46:17;7.28;;;3.22;;
7669;SDS011;3877;42.562;27.636;2023-07-29T03:48:47;6.88;;;3.20;;
7669;SDS011;3877;42.562;27.636;2023-07-29T03:51:14;4.97;;;3.30;;
7669;SDS011;3877;42.562;27.636;2023-07-29T03:53:41;4.95;;;3.42;;
7669;SDS011;3877;42.562;27.636;2023-07-29T03:56:09;8.75;;;3.70;;
7669;SDS011;3877;42.562;27.636;2023-07-29T03:58:37;6.00;;;4.15;;
7669;SDS011;3877;42.562;27.636;2023-07-29T04:01:04;7.55;;;4.30;;
7669;SDS011;3877;42.562;27.636;2023-07-29T04:03:32;6.40;;;4.60;;
7669;SDS011;3877;42.562;27.636;2023-07-29T04:06:00;9.27;;;4.60;;
7669;SDS011;3877;42.562;27.636;2023-07-29T04:08:27;10.75;;;4.95;;
7669;SDS011;3877;42.562;27.636;2023-07-29T04:10:55;9.25;;;4.80;;
7669;SDS011;3877;42.562;27.636;2023-07-29T04:13:22;9.50;;;5.03;;
7669;SDS011;3877;42.562;27.636;2023-07-29T04:15:51;8.80;;;5.53;;
7669;SDS011;3877;42.562;27.636;2023-07-29T04:18:18;12.70;;;6.30;;
7669;SDS011;3877;42.562;27.636;2023-07-29T04:20:46;8.80;;;5.70;;
7669;SDS011;3877;42.562;27.636;2023-07-29T04:23:13;7.55;;;5.68;;
7669;SDS011;3877;42.562;27.636;2023-07-29T04:25:40;7.95;;;5.35;;
7669;SDS011;3877;42.562;27.636;2023-07-29T04:28:07;8.85;;;5.53;;
7669;SDS011;3877;42.562;27.636;2023-07-29T04:30:34;8.57;;;5.68;;
7669;SDS011;3877;42.562;27.636;2023-07-29T04:33:03;6.15;;;5.13;;
7669;SDS011;3877;42.562;27.636;2023-07-29T04:35:30;12.25;;;4.78;;
7669;SDS011;3877;42.562;27.636;2023-07-29T04:37:57;8.10;;;4.93;;
7669;SDS011;3877;42.562;27.636;2023-07-29T04:40:25;7.32;;;4.50;;
7669;SDS011;3877;42.562;27.636;2023-07-29T04:42:52;5.07;;;4.53;;
7669;SDS011;3877;42.562;27.636;2023-07-29T04:45:19;6.40;;;4.30;;
7669;SDS011;3877;42.562;27.636;2023-07-29T04:47:46;8.77;;;4.65;;
7669;SDS011;3877;42.562;27.636;2023-07-29T04:50:15;7.88;;;4.57;;
7669;SDS011;3877;42.562;27.636;2023-07-29T04:52:42;6.78;;;4.20;;
7669;SDS011;3877;42.562;27.636;2023-07-29T04:55:10;6.35;;;4.22;;
7669;SDS011;3877;42.562;27.636;2023-07-29T04:57:37;5.60;;;4.35;;
7669;SDS011;3877;42.562;27.636;2023-07-29T05:00:05;9.48;;;5.10;;
7669;SDS011;3877;42.562;27.636;2023-07-29T05:02:33;8.18;;;5.32;;
7669;SDS011;3877;42.562;27.636;2023-07-29T05:05:00;5.95;;;5.30;;
7669;SDS011;3877;42.562;27.636;2023-07-29T05:07:29;12.40;;;5.70;;
7669;SDS011;3877;42.562;27.636;2023-07-29T05:09:56;8.90;;;5.53;;
7669;SDS011;3877;42.562;27.636;2023-07-29T05:12:24;8.10;;;5.60;;
7669;SDS011;3877;42.562;27.636;2023-07-29T05:14:51;14.65;;;5.82;;
7669;SDS011;3877;42.562;27.636;2023-07-29T05:17:18;8.80;;;5.00;;
7669;SDS011;3877;42.562;27.636;2023-07-29T05:19:45;5.90;;;5.30;;
7669;SDS011;3877;42.562;27.636;2023-07-29T05:22:13;6.63;;;5.25;;
7669;SDS011;3877;42.562;27.636;2023-07-29T05:24:41;8.68;;;6.05;;
7669;SDS011;3877;42.562;27.636;2023-07-29T05:27:09;12.48;;;7.07;;
7669;SDS011;3877;42.562;27.636;2023-07-29T05:29:36;8.75;;;6.78;;
7669;SDS011;3877;42.562;27.636;2023-07-29T05:32:04;8.43;;;6.05;;
7669;SDS011;3877;42.562;27.636;2023-07-29T05:34:32;6.95;;;4.20;;
7669;SDS011;3877;42.562;27.636;2023-07-29T05:36:59;8.25;;;3.75;;
7669;SDS011;3877;42.562;27.636;2023-07-29T05:39:26;3.88;;;3.38;;
7669;SDS011;3877;42.562;27.636;2023-07-29T05:41:55;7.07;;;3.10;;
7669;SDS011;3877;42.562;27.636;2023-07-29T05:44:22;7.10;;;3.05;;
7669;SDS011;3877;42.562;27.636;2023-07-29T05:46:49;4.75;;;3.20;;
7669;SDS011;3877;42.562;27.636;2023-07-29T05:49:16;4.93;;;3.00;;
7669;SDS011;3877;42.562;27.636;2023-07-29T05:51:44;3.90;;;3.00;;
7669;SDS011;3877;42.562;27.636;2023-07-29T05:54:11;3.97;;;3.10;;
7669;SDS011;3877;42.562;27.636;2023-07-29T05:56:38;8.35;;;3.63;;
7669;SDS011;3877;42.562;27.636;2023-07-29T05:59:07;4.35;;;3.10;;
7669;SDS011;3877;42.562;27.636;2023-07-29T06:01:34;3.03;;;2.72;;
7669;SDS011;3877;42.562;27.636;2023-07-29T06:04:01;5.63;;;3.40;;
7669;SDS011;3877;42.562;27.636;2023-07-29T06:06:28;5.22;;;3.35;;
7669;SDS011;3877;42.562;27.636;2023-07-29T06:08:55;6.63;;;3.60;;
7669;SDS011;3877;42.562;27.636;2023-07-29T06:11:23;5.50;;;4.07;;
7669;SDS011;3877;42.562;27.636;2023-07-29T06:13:51;9.48;;;4.70;;
7669;SDS011;3877;42.562;27.636;2023-07-29T06:16:20;6.30;;;4.25;;
7669;SDS011;3877;42.562;27.636;2023-07-29T06:18:47;5.45;;;3.60;;
7669;SDS011;3877;42.562;27.636;2023-07-29T06:21:15;5.80;;;4.25;;
7669;SDS011;3877;42.562;27.636;2023-07-29T06:23:44;8.50;;;3.58;;
7669;SDS011;3877;42.562;27.636;2023-07-29T06:26:11;7.18;;;2.80;;
7669;SDS011;3877;42.562;27.636;2023-07-29T06:28:38;4.45;;;3.25;;
7669;SDS011;3877;42.562;27.636;2023-07-29T06:31:05;4.93;;;2.70;;
7669;SDS011;3877;42.562;27.636;2023-07-29T06:33:34;5.13;;;2.65;;
7669;SDS011;3877;42.562;27.636;2023-07-29T06:36:01;4.10;;;2.53;;
7669;SDS011;3877;42.562;27.636;2023-07-29T06:38:29;5.05;;;2.90;;
7669;SDS011;3877;42.562;27.636;2023-07-29T06:40:56;5.93;;;2.85;;
7669;SDS011;3877;42.562;27.636;2023-07-29T06:43:23;7.70;;;2.85;;
7669;SDS011;3877;42.562;27.636;2023-07-29T06:45:51;4.93;;;2.95;;
7669;SDS011;3877;42.562;27.636;2023-07-29T06:48:18;6.28;;;2.65;;
7669;SDS011;3877;42.562;27.636;2023-07-29T06:50:47;4.95;;;2.78;;
7669;SDS011;3877;42.562;27.636;2023-07-29T06:53:15;5.78;;;3.05;;
7669;SDS011;3877;42.562;27.636;2023-07-29T06:55:42;4.55;;;3.00;;
7669;SDS011;3877;42.562;27.636;2023-07-29T06:58:10;5.90;;;2.88;;
7669;SDS011;3877;42.562;27.636;2023-07-29T07:00:37;8.80;;;3.22;;
7669;SDS011;3877;42.562;27.636;2023-07-29T07:03:04;8.60;;;2.80;;
7669;SDS011;3877;42.562;27.636;2023-07-29T07:05:31;7.45;;;2.92;;
7669;SDS011;3877;42.562;27.636;2023-07-29T07:08:00;3.90;;;3.03;;
7669;SDS011;3877;42.562;27.636;2023-07-29T07:10:27;7.53;;;3.00;;
7669;SDS011;3877;42.562;27.636;2023-07-29T07:12:55;7.47;;;2.90;;
7669;SDS011;3877;42.562;27.636;2023-07-29T07:15:22;6.45;;;3.65;;
7669;SDS011;3877;42.562;27.636;2023-07-29T07:17:50;8.32;;;3.53;;
7669;SDS011;3877;42.562;27.636;2023-07-29T07:20:17;3.72;;;3.10;;
7669;SDS011;3877;42.562;27.636;2023-07-29T07:22:44;6.20;;;3.10;;
7669;SDS011;3877;42.562;27.636;2023-07-29T07:25:13;6.82;;;2.97;;
7669;SDS011;3877;42.562;27.636;2023-07-29T07:27:40;10.75;;;3.67;;
7669;SDS011;3877;42.562;27.636;2023-07-29T07:30:08;6.57;;;3.50;;
7669;SDS011;3877;42.562;27.636;2023-07-29T07:32:35;7.07;;;3.55;;
7669;SDS011;3877;42.562;27.636;2023-07-29T07:35:03;7.35;;;3.38;;
7669;SDS011;3877;42.562;27.636;2023-07-29T07:37:30;6.25;;;2.95;;
7669;SDS011;3877;42.562;27.636;2023-07-29T07:39:58;7.35;;;3.15;;
7669;SDS011;3877;42.562;27.636;2023-07-29T07:42:26;8.95;;;3.10;;
7669;SDS011;3877;42.562;27.636;2023-07-29T07:44:53;8.90;;;2.85;;
7669;SDS011;3877;42.562;27.636;2023-07-29T07:47:21;5.78;;;2.88;;
7669;SDS011;3877;42.562;27.636;2023-07-29T07:49:48;13.90;;;3.00;;
7669;SDS011;3877;42.562;27.636;2023-07-29T07:52:15;6.00;;;3.47;;
7669;SDS011;3877;42.562;27.636;2023-07-29T07:54:43;9.10;;;2.80;;
7669;SDS011;3877;42.562;27.636;2023-07-29T07:57:10;8.82;;;3.03;;
7669;SDS011;3877;42.562;27.636;2023-07-29T07:59:39;8.68;;;2.70;;
7669;SDS011;3877;42.562;27.636;2023-07-29T08:02:06;14.05;;;3.22;;
7669;SDS011;3877;42.562;27.636;2023-07-29T08:04:33;5.90;;;2.72;;
7669;SDS011;3877;42.562;27.636;2023-07-29T08:07:00;7.05;;;2.65;;
7669;SDS011;3877;42.562;27.636;2023-07-29T08:09:28;6.20;;;2.90;;
7669;SDS011;3877;42.562;27.636;2023-07-29T08:11:55;9.30;;;2.67;;
7669;SDS011;3877;42.562;27.636;2023-07-29T08:14:22;6.78;;;2.95;;
7669;SDS011;3877;42.562;27.636;2023-07-29T08:16:51;5.43;;;2.90;;
7669;SDS011;3877;42.562;27.636;2023-07-29T08:19:18;8.95;;;2.63;;
7669;SDS011;3877;42.562;27.636;2023-07-29T08:21:45;5.82;;;2.70;;
7669;SDS011;3877;42.562;27.636;2023-07-29T08:24:12;9.80;;;2.70;;
7669;SDS011;3877;42.562;27.636;2023-07-29T08:26:39;7.90;;;2.95;;
7669;SDS011;3877;42.562;27.636;2023-07-29T08:29:06;7.82;;;2.63;;
7669;SDS011;3877;42.562;27.636;2023-07-29T08:31:33;8.05;;;2.63;;
7669;SDS011;3877;42.562;27.636;2023-07-29T08:34:02;7.63;;;2.97;;
7669;SDS011;3877;42.562;27.636;2023-07-29T08:36:29;6.10;;;2.67;;
7669;SDS011;3877;42.562;27.636;2023-07-29T08:38:56;5.30;;;3.10;;
7669;SDS011;3877;42.562;27.636;2023-07-29T08:41:25;5.70;;;2.80;;
7669;SDS011;3877;42.562;27.636;2023-07-29T08:43:56;8.25;;;3.13;;
7669;SDS011;3877;42.562;27.636;2023-07-29T08:46:28;8.25;;;3.45;;
7669;SDS011;3877;42.562;27.636;2023-07-29T08:48:55;7.72;;;2.83;;
7669;SDS011;3877;42.562;27.636;2023-07-29T08:51:24;7.85;;;2.97;;
7669;SDS011;3877;42.562;27.636;2023-07-29T08:53:53;7.43;;;2.97;;
7669;SDS011;3877;42.562;27.636;2023-07-29T08:56:20;27.90;;;9.25;;
7669;SDS011;3877;42.562;27.636;2023-07-29T08:58:48;9.45;;;3.10;;
7669;SDS011;3877;42.562;27.636;2023-07-29T09:01:16;6.32;;;2.55;;
7669;SDS011;3877;42.562;27.636;2023-07-29T09:03:43;10.07;;;3.90;;
7669;SDS011;3877;42.562;27.636;2023-07-29T09:06:10;6.00;;;2.53;;
7669;SDS011;3877;42.562;27.636;2023-07-29T09:08:42;5.80;;;2.33;;
7669;SDS011;3877;42.562;27.636;2023-07-29T09:11:12;4.10;;;2.42;;
7669;SDS011;3877;42.562;27.636;2023-07-29T09:13:41;4.90;;;2.22;;
7669;SDS011;3877;42.562;27.636;2023-07-29T09:16:08;4.82;;;2.65;;
7669;SDS011;3877;42.562;27.636;2023-07-29T09:18:37;10.73;;;3.30;;
7669;SDS011;3877;42.562;27.636;2023-07-29T09:21:04;2.90;;;2.45;;
7669;SDS011;3877;42.562;27.636;2023-07-29T09:23:38;6.55;;;3.03;;
7669;SDS011;3877;42.562;27.636;2023-07-29T09:26:08;3.50;;;2.40;;
7669;SDS011;3877;42.562;27.636;2023-07-29T09:28:36;4.78;;;2.10;;
7669;SDS011;3877;42.562;27.636;2023-07-29T09:31:05;6.05;;;2.72;;
7669;SDS011;3877;42.562;27.636;2023-07-29T09:33:33;3.88;;;2.35;;
7669;SDS011;3877;42.562;27.636;2023-07-29T09:36:02;3.65;;;2.40;;
7669;SDS011;3877;42.562;27.636;2023-07-29T09:38:35;4.32;;;2.20;;
7669;SDS011;3877;42.562;27.636;2023-07-29T09:41:03;3.28;;;2.20;;
7669;SDS011;3877;42.562;27.636;2023-07-29T09:43:32;5.97;;;2.58;;
7669;SDS011;3877;42.562;27.636;2023-07-29T09:46:01;5.82;;;2.60;;
7669;SDS011;3877;42.562;27.636;2023-07-29T09:48:32;4.45;;;2.65;;
7669;SDS011;3877;42.562;27.636;2023-07-29T09:50:59;4.70;;;2.40;;
7669;SDS011;3877;42.562;27.636;2023-07-29T09:53:38;5.95;;;2.60;;
7669;SDS011;3877;42.562;27.636;2023-07-29T09:56:06;7.38;;;2.80;;
7669;SDS011;3877;42.562;27.636;2023-07-29T09:58:35;5.07;;;2.90;;
7669;SDS011;3877;42.562;27.636;2023-07-29T10:01:03;5.75;;;2.30;;
7669;SDS011;3877;42.562;27.636;2023-07-29T10:03:31;6.72;;;2.60;;
7669;SDS011;3877;42.562;27.636;2023-07-29T10:05:59;3.50;;;2.60;;
7669;SDS011;3877;42.562;27.636;2023-07-29T10:08:28;6.03;;;2.58;;
7669;SDS011;3877;42.562;27.636;2023-07-29T10:10:57;9.02;;;4.20;;
7669;SDS011;3877;42.562;27.636;2023-07-29T10:13:25;5.47;;;2.80;;
7669;SDS011;3877;42.562;27.636;2023-07-29T10:15:54;3.97;;;2.55;;
7669;SDS011;3877;42.562;27.636;2023-07-29T10:18:22;3.92;;;2.80;;
7669;SDS011;3877;42.562;27.636;2023-07-29T10:20:50;5.55;;;2.58;;
7669;SDS011;3877;42.562;27.636;2023-07-29T10:23:19;3.67;;;2.58;;
7669;SDS011;3877;42.562;27.636;2023-07-29T10:25:49;7.50;;;3.47;;
7669;SDS011;3877;42.562;27.636;2023-07-29T10:28:29;3.50;;;2.50;;
7669;SDS011;3877;42.562;27.636;2023-07-29T10:30:59;2.75;;;2.42;;
7669;SDS011;3877;42.562;27.636;2023-07-29T10:33:26;5.88;;;2.20;;
7669;SDS011;3877;42.562;27.636;2023-07-29T10:35:54;3.75;;;2.50;;
7669;SDS011;3877;42.562;27.636;2023-07-29T10:38:22;4.85;;;2.33;;
7669;SDS011;3877;42.562;27.636;2023-07-29T10:40:51;4.13;;;2.72;;
7669;SDS011;3877;42.562;27.636;2023-07-29T10:43:24;3.60;;;2.58;;
7669;SDS011;3877;42.562;27.636;2023-07-29T10:45:52;8.25;;;2.30;;
7669;SDS011;3877;42.562;27.636;2023-07-29T10:51:25;6.13;;;2.85;;
7669;SDS011;3877;42.562;27.636;2023-07-29T10:53:55;5.00;;;2.17;;
7669;SDS011;3877;42.562;27.636;2023-07-29T10:56:26;3.97;;;2.40;;
7669;SDS011;3877;42.562;27.636;2023-07-29T10:58:55;3.70;;;2.60;;
7669;SDS011;3877;42.562;27.636;2023-07-29T11:01:27;4.35;;;2.40;;
7669;SDS011;3877;42.562;27.636;2023-07-29T11:09:56;5.00;;;2.67;;
7669;SDS011;3877;42.562;27.636;2023-07-29T11:12:38;8.48;;;2.88;;
7669;SDS011;3877;42.562;27.636;2023-07-29T11:15:17;11.77;;;2.85;;
7669;SDS011;3877;42.562;27.636;2023-07-29T11:17:46;10.00;;;3.08;;
7669;SDS011;3877;42.562;27.636;2023-07-29T11:20:16;3.17;;;2.40;;
7669;SDS011;3877;42.562;27.636;2023-07-29T11:22:43;2.63;;;2.28;;
7669;SDS011;3877;42.562;27.636;2023-07-29T11:25:11;6.22;;;2.35;;
7669;SDS011;3877;42.562;27.636;2023-07-29T11:27:40;4.03;;;2.60;;
7669;SDS011;3877;42.562;27.636;2023-07-29T11:30:07;6.53;;;2.70;;
7669;SDS011;3877;42.562;27.636;2023-07-29T11:32:36;9.20;;;2.22;;
7669;SDS011;3877;42.562;27.636;2023-07-29T11:35:04;4.22;;;2.58;;
7669;SDS011;3877;42.562;27.636;2023-07-29T11:37:37;3.90;;;2.20;;
7669;SDS011;3877;42.562;27.636;2023-07-29T11:40:05;5.25;;;2.60;;
7669;SDS011;3877;42.562;27.636;2023-07-29T11:42:34;3.35;;;2.70;;
7669;SDS011;3877;42.562;27.636;2023-07-29T11:45:01;5.22;;;2.35;;
7669;SDS011;3877;42.562;27.636;2023-07-29T11:47:31;4.68;;;2.88;;
7669;SDS011;3877;42.562;27.636;2023-07-29T11:50:02;10.52;;;2.42;;
7669;SDS011;3877;42.562;27.636;2023-07-29T11:52:31;6.35;;;2.35;;
7669;SDS011;3877;42.562;27.636;2023-07-29T11:55:01;11.27;;;2.60;;
7669;SDS011;3877;42.562;27.636;2023-07-29T11:57:29;5.68;;;2.50;;
7669;SDS011;3877;42.562;27.636;2023-07-29T11:59:57;4.32;;;2.15;;
7669;SDS011;3877;42.562;27.636;2023-07-29T12:02:25;6.88;;;2.58;;
7669;SDS011;3877;42.562;27.636;2023-07-29T12:04:52;5.43;;;2.40;;
7669;SDS011;3877;42.562;27.636;2023-07-29T12:07:20;4.60;;;2.20;;
7669;SDS011;3877;42.562;27.636;2023-07-29T12:09:47;2.30;;;2.10;;
7669;SDS011;3877;42.562;27.636;2023-07-29T12:12:17;5.80;;;2.40;;
7669;SDS011;3877;42.562;27.636;2023-07-29T12:14:45;3.00;;;1.98;;
7669;SDS011;3877;42.562;27.636;2023-07-29T12:17:12;3.97;;;2.28;;
7669;SDS011;3877;42.562;27.636;2023-07-29T12:19:40;5.32;;;2.10;;
7669;SDS011;3877;42.562;27.636;2023-07-29T12:22:09;8.18;;;2.53;;
7669;SDS011;3877;42.562;27.636;2023-07-29T12:24:37;8.88;;;2.50;;
7669;SDS011;3877;42.562;27.636;2023-07-29T12:27:06;5.43;;;2.20;;
7669;SDS011;3877;42.562;27.636;2023-07-29T12:29:41;5.35;;;2.20;;
7669;SDS011;3877;42.562;27.636;2023-07-29T12:32:09;5.40;;;2.17;;
7669;SDS011;3877;42.562;27.636;2023-07-29T12:34:37;5.05;;;1.90;;
7669;SDS011;3877;42.562;27.636;2023-07-29T12:37:06;5.57;;;2.55;;
7669;SDS011;3877;42.562;27.636;2023-07-29T12:39:34;6.30;;;2.40;;
7669;SDS011;3877;42.562;27.636;2023-07-29T12:42:06;8.38;;;2.47;;
7669;SDS011;3877;42.562;27.636;2023-07-29T12:44:33;5.78;;;2.20;;
7669;SDS011;3877;42.562;27.636;2023-07-29T12:47:03;3.42;;;2.10;;
7669;SDS011;3877;42.562;27.636;2023-07-29T12:49:33;5.18;;;1.85;;
7669;SDS011;3877;42.562;27.636;2023-07-29T12:52:01;13.30;;;2.63;;
7669;SDS011;3877;42.562;27.636;2023-07-29T12:54:28;6.90;;;2.67;;
7669;SDS011;3877;42.562;27.636;2023-07-29T12:56:55;3.72;;;2.15;;
7669;SDS011;3877;42.562;27.636;2023-07-29T12:59:22;3.45;;;2.22;;
7669;SDS011;3877;42.562;27.636;2023-07-29T13:01:49;11.70;;;2.10;;
7669;SDS011;3877;42.562;27.636;2023-07-29T13:04:18;3.78;;;2.10;;
7669;SDS011;3877;42.562;27.636;2023-07-29T13:06:45;5.10;;;2.45;;
7669;SDS011;3877;42.562;27.636;2023-07-29T13:09:12;6.03;;;2.20;;
7669;SDS011;3877;42.562;27.636;2023-07-29T13:11:39;2.63;;;1.80;;
7669;SDS011;3877;42.562;27.636;2023-07-29T13:14:07;3.30;;;1.92;;
7669;SDS011;3877;42.562;27.636;2023-07-29T13:16:34;5.53;;;2.20;;
7669;SDS011;3877;42.562;27.636;2023-07-29T13:19:01;4.40;;;1.90;;
7669;SDS011;3877;42.562;27.636;2023-07-29T13:21:30;14.00;;;2.95;;
7669;SDS011;3877;42.562;27.636;2023-07-29T13:23:57;4.80;;;2.00;;
7669;SDS011;3877;42.562;27.636;2023-07-29T13:26:24;3.35;;;2.10;;
7669;SDS011;3877;42.562;27.636;2023-07-29T13:28:51;3.03;;;1.98;;
7669;SDS011;3877;42.562;27.636;2023-07-29T13:31:20;3.97;;;2.05;;
7669;SDS011;3877;42.562;27.636;2023-07-29T13:33:47;3.85;;;2.10;;
7669;SDS011;3877;42.562;27.636;2023-07-29T13:36:14;3.35;;;2.00;;
7669;SDS011;3877;42.562;27.636;2023-07-29T13:38:43;3.58;;;1.98;;
7669;SDS011;3877;42.562;27.636;2023-07-29T13:41:10;8.05;;;2.50;;
7669;SDS011;3877;42.562;27.636;2023-07-29T13:43:37;3.95;;;2.10;;
7669;SDS011;3877;42.562;27.636;2023-07-29T13:46:04;7.95;;;2.03;;
7669;SDS011;3877;42.562;27.636;2023-07-29T13:48:31;6.35;;;2.33;;
7669;SDS011;3877;42.562;27.636;2023-07-29T13:51:00;5.35;;;2.30;;
7669;SDS011;3877;42.562;27.636;2023-07-29T13:53:28;3.05;;;2.05;;
7669;SDS011;3877;42.562;27.636;2023-07-29T13:55:56;4.57;;;2.20;;
7669;SDS011;3877;42.562;27.636;2023-07-29T13:58:24;2.35;;;2.10;;
7669;SDS011;3877;42.562;27.636;2023-07-29T14:00:51;7.55;;;2.40;;
7669;SDS011;3877;42.562;27.636;2023-07-29T14:03:18;5.50;;;2.53;;
7669;SDS011;3877;42.562;27.636;2023-07-29T14:05:45;6.28;;;2.42;;
7669;SDS011;3877;42.562;27.636;2023-07-29T14:08:13;5.55;;;2.42;;
7669;SDS011;3877;42.562;27.636;2023-07-29T14:10:42;4.18;;;2.45;;
7669;SDS011;3877;42.562;27.636;2023-07-29T14:13:10;6.57;;;2.17;;
7669;SDS011;3877;42.562;27.636;2023-07-29T14:15:38;5.75;;;2.50;;
7669;SDS011;3877;42.562;27.636;2023-07-29T14:18:05;3.67;;;2.50;;
7669;SDS011;3877;42.562;27.636;2023-07-29T14:20:32;3.53;;;2.00;;
7669;SDS011;3877;42.562;27.636;2023-07-29T14:23:00;6.03;;;2.58;;
7669;SDS011;3877;42.562;27.636;2023-07-29T14:25:27;5.32;;;2.65;;
7669;SDS011;3877;42.562;27.636;2023-07-29T14:27:55;3.80;;;2.33;;
7669;SDS011;3877;42.562;27.636;2023-07-29T14:30:23;4.72;;;2.35;;
7669;SDS011;3877;42.562;27.636;2023-07-29T14:32:51;4.78;;;2.33;;
7669;SDS011;3877;42.562;27.636;2023-07-29T14:35:18;4.72;;;2.60;;
7669;SDS011;3877;42.562;27.636;2023-07-29T14:37:45;3.53;;;2.10;;
7669;SDS011;3877;42.562;27.636;2023-07-29T14:40:12;5.32;;;2.10;;
7669;SDS011;3877;42.562;27.636;2023-07-29T14:42:39;4.03;;;2.10;;
7669;SDS011;3877;42.562;27.636;2023-07-29T14:45:06;6.53;;;2.60;;
7669;SDS011;3877;42.562;27.636;2023-07-29T14:47:35;7.13;;;2.55;;
7669;SDS011;3877;42.562;27.636;2023-07-29T14:50:02;4.57;;;2.28;;
7669;SDS011;3877;42.562;27.636;2023-07-29T14:52:30;4.10;;;2.22;;
7669;SDS011;3877;42.562;27.636;2023-07-29T14:54:57;6.28;;;2.33;;
7669;SDS011;3877;42.562;27.636;2023-07-29T14:57:24;3.92;;;2.30;;
7669;SDS011;3877;42.562;27.636;2023-07-29T14:59:52;7.50;;;2.65;;
7669;SDS011;3877;42.562;27.636;2023-07-29T15:02:19;3.03;;;2.20;;
7669;SDS011;3877;42.562;27.636;2023-07-29T15:04:49;6.40;;;2.03;;
7669;SDS011;3877;42.562;27.636;2023-07-29T15:07:16;9.40;;;2.53;;
7669;SDS011;3877;42.562;27.636;2023-07-29T15:09:43;4.97;;;2.40;;
7669;SDS011;3877;42.562;27.636;2023-07-29T15:12:11;6.53;;;2.67;;
7669;SDS011;3877;42.562;27.636;2023-07-29T15:14:38;4.97;;;2.45;;